Time;durP1;ratioP1;P1;durP2;ratioP2;P2;SDS_P1;SDS_P2;PMS_P1;PMS_P2;Temp;Humidity;BMP_temperature;BMP_pressure;BME280_temperature;BME280_humidity;BME280_pressure;Samples;Min_cycle;Max_cycle;Signal;HPM_P1;HPM_P2
2022/11/01 00:00:33;;;;;;;20.23;8.10;;;;;;;13.99;100.00;100821.41;7375998;19;20014;-75
2022/11/01 00:03:06;;;;;;;19.02;8.57;;;;;;;14.00;100.00;100829.31;7374968;19;20533;-74
2022/11/01 00:05:35;;;;;;;18.35;7.20;;;;;;;14.01;100.00;100824.91;7380712;19;20014;-74
2022/11/01 00:08:05;;;;;;;17.58;8.32;;;;;;;14.06;100.00;100818.75;7378309;19;20014;-75
2022/11/01 00:10:35;;;;;;;22.45;8.50;;;;;;;14.16;100.00;100818.75;7375157;19;20026;-74
2022/11/01 00:13:05;;;;;;;15.85;8.43;;;;;;;14.23;100.00;100829.28;7376287;19;20022;-75
2022/11/01 00:15:34;;;;;;;20.00;9.07;;;;;;;14.20;100.00;100828.41;7379194;19;20010;-75
2022/11/01 00:18:07;;;;;;;15.57;8.80;;;;;;;14.25;100.00;100826.63;7379736;19;20086;-75
2022/11/01 00:20:37;;;;;;;18.20;7.78;;;;;;;14.30;100.00;100812.56;7373067;19;20541;-75
2022/11/01 00:23:06;;;;;;;14.75;7.88;;;;;;;14.32;100.00;100802.00;7378645;19;20017;-75
2022/11/01 00:25:36;;;;;;;21.77;7.95;;;;;;;14.29;100.00;100804.66;7374666;19;20126;-76
2022/11/01 00:28:06;;;;;;;20.08;8.32;;;;;;;14.26;100.00;100807.28;7376651;19;20022;-76
2022/11/01 00:30:38;;;;;;;15.27;7.75;;;;;;;14.33;100.00;100785.28;7372089;19;20021;-76
2022/11/01 00:33:10;;;;;;;19.33;7.57;;;;;;;14.45;100.00;100794.97;7375414;19;20026;-76
2022/11/01 00:35:40;;;;;;;19.08;7.15;;;;;;;14.48;100.00;100789.69;7378498;19;20703;-76
2022/11/01 00:38:10;;;;;;;17.23;7.55;;;;;;;14.50;100.00;100788.78;7381995;19;20015;-76
2022/11/01 00:40:39;;;;;;;16.92;7.65;;;;;;;14.51;100.00;100792.31;7381122;19;20015;-76
2022/11/01 00:43:09;;;;;;;17.48;7.45;;;;;;;14.51;100.00;100793.19;7380374;19;20025;-76
2022/11/01 00:45:39;;;;;;;18.13;7.97;;;;;;;14.49;100.00;100797.59;7377610;19;20025;-76
2022/11/01 00:48:11;;;;;;;14.23;8.07;;;;;;;14.52;100.00;100794.94;7377895;19;20078;-76
2022/11/01 00:50:41;;;;;;;16.30;7.60;;;;;;;14.55;100.00;100796.69;7376103;19;20007;-76
2022/11/01 00:53:13;;;;;;;15.43;7.78;;;;;;;14.60;100.00;100793.13;7372992;19;20018;-76
2022/11/01 00:55:43;;;;;;;16.40;7.35;;;;;;;14.60;100.00;100794.88;7375774;19;20006;-76
2022/11/01 00:58:13;;;;;;;20.17;8.65;;;;;;;14.63;100.00;100792.22;7370905;19;20095;-76
2022/11/01 01:00:42;;;;;;;18.30;7.80;;;;;;;14.66;100.00;100782.53;7377882;19;20014;-75
2022/11/01 01:03:15;;;;;;;16.23;7.57;;;;;;;14.65;100.00;100782.53;7376057;19;20788;-76
2022/11/01 01:05:44;;;;;;;21.95;8.20;;;;;;;14.67;100.00;100771.09;7376347;19;20025;-75
2022/11/01 01:08:14;;;;;;;15.63;7.22;;;;;;;14.72;100.00;100768.44;7376490;19;20022;-76
2022/11/01 01:10:44;;;;;;;18.15;7.97;;;;;;;14.68;100.00;100767.56;7376724;19;20078;-75
2022/11/01 01:13:13;;;;;;;19.17;8.25;;;;;;;14.73;100.00;100764.91;7376613;19;20015;-75
2022/11/01 01:15:43;;;;;;;12.57;7.38;;;;;;;14.79;100.00;100762.22;7375810;19;20026;-76
2022/11/01 01:18:16;;;;;;;13.27;7.28;;;;;;;14.81;100.00;100772.78;7377373;19;20018;-75
2022/11/01 01:20:46;;;;;;;18.95;7.00;;;;;;;14.89;100.00;100771.88;7377411;19;20014;-76
2022/11/01 01:23:15;;;;;;;15.38;6.88;;;;;;;14.87;100.00;100778.03;7377738;19;20021;-76
2022/11/01 01:25:45;;;;;;;18.52;8.18;;;;;;;14.90;100.00;100773.63;7376324;19;20011;-75
2022/11/01 01:28:14;;;;;;;17.23;7.45;;;;;;;14.92;100.00;100761.28;7377895;19;20030;-75
2022/11/01 01:30:44;;;;;;;13.70;7.25;;;;;;;15.01;100.00;100770.91;7375510;19;20107;-75
2022/11/01 01:33:16;;;;;;;19.13;6.80;;;;;;;15.02;100.00;100764.75;7377404;19;20010;-75
2022/11/01 01:35:46;;;;;;;14.43;7.00;;;;;;;15.01;100.00;100771.78;7375495;19;20236;-75
2022/11/01 01:38:15;;;;;;;13.80;7.00;;;;;;;15.09;100.00;100769.09;7375842;19;20489;-75
2022/11/01 01:40:45;;;;;;;15.48;7.03;;;;;;;15.12;100.00;100765.56;7374613;19;20015;-75
2022/11/01 01:43:15;;;;;;;16.77;7.20;;;;;;;15.14;100.00;100769.06;7378340;19;20010;-75
2022/11/01 01:45:45;;;;;;;13.40;7.15;;;;;;;15.16;100.00;100757.63;7384149;19;20006;-75
2022/11/01 01:48:24;;;;;;;13.55;7.20;;;;;;;15.16;100.00;100754.97;7383652;19;20011;-75
2022/11/01 01:50:59;;;;;;;15.05;6.65;;;;;;;15.16;100.00;100756.72;7385192;19;20514;-75
2022/11/01 01:53:33;;;;;;;15.05;7.78;;;;;;;15.19;100.00;100752.31;7380248;19;20025;-75
2022/11/01 01:56:04;;;;;;;;;;;;;;;15.21;100.00;100752.28;7386185;19;20019;-75
2022/11/01 01:58:39;;;;;;;12.30;5.80;;;;;;;15.29;100.00;100754.00;7385342;19;19902;-70
2022/11/01 02:01:08;;;;;;;13.23;6.22;;;;;;;15.29;100.00;100751.34;7383990;19;20022;-69
2022/11/01 02:03:43;;;;;;;13.88;7.03;;;;;;;15.36;100.00;100757.47;7386647;19;20010;-70
2022/11/01 02:06:15;;;;;;;12.70;6.55;;;;;;;15.45;100.00;100740.66;7384463;19;20018;-70
2022/11/01 02:08:46;;;;;;;13.95;6.35;;;;;;;15.55;100.00;100750.28;7379574;19;20041;-70
2022/11/01 02:11:18;;;;;;;13.00;6.45;;;;;;;15.64;100.00;100742.25;7385557;19;20015;-70
2022/11/01 02:13:48;;;;;;;13.02;5.90;;;;;;;15.63;100.00;100770.47;7384169;19;20066;-69
2022/11/01 02:16:45;;;;;;;13.77;5.72;;;;;;;15.58;100.00;100774.06;7377701;19;20021;-70
2022/11/01 02:19:48;;;;;;;7.70;3.85;;;;;;;15.48;100.00;100790.84;7379850;19;20014;-69
2022/11/01 02:22:24;;;;;;;10.13;4.85;;;;;;;15.41;100.00;100787.38;7378452;19;20006;-74
2022/11/01 02:25:10;;;;;;;9.93;4.35;;;;;;;15.37;100.00;100786.53;7382259;19;20022;-75
2022/11/01 02:28:19;;;;;;;12.57;4.55;;;;;;;15.37;100.00;100797.09;7381297;19;20014;-76
2022/11/01 02:31:01;;;;;;;7.63;3.50;;;;;;;15.34;100.00;100804.16;7376742;19;20019;-75
2022/11/01 02:33:40;;;;;;;9.05;3.38;;;;;;;15.29;100.00;100804.19;7382695;19;20025;-71
2022/11/01 02:36:17;;;;;;;6.50;3.00;;;;;;;15.14;100.00;100827.19;7382179;19;20789;-70
2022/11/01 02:38:50;;;;;;;6.60;2.95;;;;;;;15.09;100.00;100818.41;7384714;19;20018;-71
2022/11/01 02:41:23;;;;;;;;;;;;;;;14.99;100.00;100814.94;7381651;19;20025;-71
2022/11/01 02:43:56;;;;;;;6.90;2.70;;;;;;;14.90;100.00;100821.16;7381820;19;19918;-71
2022/11/01 02:49:18;;;;;;;6.30;2.50;;;;;;;14.80;100.00;100824.72;7379972;19;20022;-71
2022/11/01 02:51:50;;;;;;;5.60;2.10;;;;;;;14.64;100.00;100829.19;7380685;19;20038;-71
2022/11/01 02:54:23;;;;;;;6.45;2.53;;;;;;;14.52;100.00;100845.06;7382171;19;20012;-71
2022/11/01 02:56:53;;;;;;;5.90;2.70;;;;;;;14.56;100.00;100852.06;7381741;19;20025;-71
2022/11/01 02:59:26;;;;;;;5.07;2.20;;;;;;;14.41;100.00;100846.84;7382022;19;20042;-71
2022/11/01 03:02:02;;;;;;;5.65;2.10;;;;;;;14.47;100.00;100862.69;7379315;19;20082;-71
2022/11/01 03:04:36;;;;;;;4.70;2.10;;;;;;;14.43;100.00;100850.38;7382819;19;20018;-71
2022/11/01 03:07:09;;;;;;;4.80;1.98;;;;;;;14.34;100.00;100871.47;7381113;19;20741;-71
2022/11/01 03:09:40;;;;;;;5.65;2.10;;;;;;;14.34;100.00;100855.63;7379711;19;20018;-71
2022/11/01 03:12:15;;;;;;;7.95;2.70;;;;;;;14.36;100.00;100859.16;7381235;19;20765;-70
2022/11/01 03:14:53;;;;;;;6.63;2.25;;;;;;;14.33;100.00;100865.31;7383053;19;20010;-70
2022/11/01 03:17:33;;;;;;;6.03;2.20;;;;;;;14.22;100.00;100872.38;7382860;19;20758;-71
2022/11/01 03:20:11;;;;;;;6.97;2.30;;;;;;;14.19;100.00;100866.22;7380859;19;20106;-70
2022/11/01 03:22:44;;;;;;;4.45;2.20;;;;;;;14.11;100.00;100879.41;7380704;19;20019;-70
2022/11/01 03:28:08;;;;;;;5.65;2.05;;;;;;;14.19;100.00;100879.41;7376948;19;20014;-70
2022/11/01 03:30:41;;;;;;;4.82;2.28;;;;;;;14.14;100.00;100883.81;7384140;19;20011;-70
2022/11/01 03:33:13;;;;;;;5.88;1.80;;;;;;;14.06;100.00;100892.59;7381437;19;20014;-70
2022/11/01 03:35:49;;;;;;;3.88;1.92;;;;;;;14.03;100.00;100902.25;7382619;19;20089;-70
2022/11/01 03:38:21;;;;;;;3.80;1.77;;;;;;;13.95;100.00;100890.84;7382207;19;20056;-71
2022/11/01 03:40:56;;;;;;;3.03;1.55;;;;;;;13.95;100.00;100904.91;7381360;19;20019;-70
2022/11/01 03:43:28;;;;;;;5.95;1.85;;;;;;;13.88;100.00;100916.31;7376904;19;20019;-70
2022/11/01 03:45:59;;;;;;;4.10;1.92;;;;;;;13.77;100.00;100915.41;7380641;19;20018;-70
2022/11/01 03:48:28;;;;;;;8.90;1.88;;;;;;;13.72;100.00;100923.31;7377087;19;20011;-70
2022/11/01 03:51:01;;;;;;;6.47;1.63;;;;;;;13.74;100.00;100929.47;7376119;19;20025;-70
2022/11/01 03:53:31;;;;;;;4.60;1.85;;;;;;;13.75;100.00;100933.88;7376979;19;20295;-71
2022/11/01 03:56:02;;;;;;;9.48;2.15;;;;;;;13.71;100.00;100944.41;7376024;19;20052;-70
2022/11/01 03:58:43;;;;;;;6.93;2.22;;;;;;;13.66;100.00;100948.78;7374161;19;20024;-71
2022/11/01 04:01:15;;;;;;;8.07;2.13;;;;;;;13.56;100.00;100941.72;7376467;19;20094;-70
2022/11/01 04:03:45;;;;;;;9.20;2.20;;;;;;;13.55;100.00;100947.88;7372044;19;20102;-70
2022/11/01 04:06:18;;;;;;;4.43;1.70;;;;;;;13.53;100.00;100957.53;7379027;19;20022;-70
2022/11/01 04:08:48;;;;;;;7.03;2.00;;;;;;;13.52;100.00;100963.72;7373793;19;20011;-70
2022/11/01 04:11:17;;;;;;;8.32;2.30;;;;;;;13.36;100.00;100971.56;7372960;19;20011;-70
2022/11/01 04:13:48;;;;;;;10.20;2.10;;;;;;;13.47;100.00;100973.34;7375538;19;20105;-69
2022/11/01 04:21:46;;;;;;;3.95;1.30;;;;;;;13.48;100.00;100996.19;7377361;19;20002;-69
2022/11/01 04:24:19;;;;;;;5.95;1.55;;;;;;;13.38;100.00;100988.25;7376798;19;20517;-71
2022/11/01 04:26:49;;;;;;;7.95;2.42;;;;;;;13.29;100.00;100988.22;7376989;19;20010;-71
2022/11/01 04:29:19;;;;;;;6.68;1.85;;;;;;;13.18;100.00;101002.19;7373830;19;20062;-69
2022/11/01 04:31:49;;;;;;;15.38;1.83;;;;;;;13.09;100.00;100995.09;7375536;19;20018;-70
2022/11/01 04:34:40;;;;;;;9.18;2.83;;;;;;;13.04;100.00;101002.97;7375036;19;20379;-71
2022/11/01 04:37:12;;;;;;;11.02;1.98;;;;;;;12.91;100.00;100997.63;7378055;19;20025;-71
2022/11/01 04:39:42;;;;;;;10.02;2.03;;;;;;;12.88;100.00;100997.59;7376549;19;20026;-69
2022/11/01 04:42:12;;;;;;;7.68;2.20;;;;;;;12.81;100.00;101003.69;7373273;19;20006;-69
2022/11/01 04:44:41;;;;;;;9.45;2.33;;;;;;;12.86;100.00;101002.84;7370311;19;20014;-71
2022/11/01 04:47:12;;;;;;;11.80;2.10;;;;;;;12.80;100.00;101022.97;7374866;19;20011;-71
2022/11/01 04:49:43;;;;;;;9.02;1.80;;;;;;;12.77;100.00;101006.31;7372261;19;20018;-69
2022/11/01 04:52:16;;;;;;;8.13;3.13;;;;;;;12.64;100.00;100999.19;7373156;19;20018;-69
2022/11/01 04:54:46;;;;;;;6.20;2.05;;;;;;;12.59;100.00;101006.16;7375113;19;20017;-69
2022/11/01 04:57:24;;;;;;;7.28;2.20;;;;;;;12.61;100.00;100996.53;7377817;19;20503;-69
2022/11/01 04:59:56;;;;;;;12.05;2.03;;;;;;;12.60;100.00;100997.41;7371733;19;20649;-69
2022/11/01 05:02:27;;;;;;;7.43;2.10;;;;;;;12.52;100.00;101004.34;7373530;19;20011;-69
2022/11/01 05:04:57;;;;;;;10.43;2.20;;;;;;;12.53;100.00;101005.25;7376018;19;20022;-69
2022/11/01 05:07:30;;;;;;;8.15;1.65;;;;;;;12.46;100.00;101003.47;7376706;19;20046;-69
2022/11/01 05:09:59;;;;;;;5.97;1.70;;;;;;;12.54;100.00;101007.00;7376441;19;20029;-69
2022/11/01 05:12:31;;;;;;;4.88;1.48;;;;;;;12.47;100.00;100994.69;7375894;19;20509;-69
2022/11/01 05:15:01;;;;;;;7.10;1.65;;;;;;;12.41;100.00;101000.78;7377275;19;20415;-69
2022/11/01 05:17:30;;;;;;;9.98;2.08;;;;;;;12.35;100.00;101011.25;7371235;19;20007;-70
2022/11/01 05:20:00;;;;;;;7.07;1.83;;;;;;;12.38;100.00;101011.28;7375995;19;20025;-69
2022/11/01 05:22:37;;;;;;;12.63;2.53;;;;;;;12.31;100.00;101012.09;7378305;19;20018;-71
2022/11/01 05:25:16;;;;;;;11.70;2.28;;;;;;;12.36;100.00;101007.75;7380757;19;20030;-70
2022/11/01 05:27:46;;;;;;;10.73;2.00;;;;;;;12.38;100.00;101014.78;7377587;19;20010;-69
2022/11/01 05:30:15;;;;;;;10.15;2.13;;;;;;;12.32;100.00;101005.97;7380413;19;20017;-69
2022/11/01 05:32:45;;;;;;;8.57;1.98;;;;;;;12.33;100.00;101013.00;7381218;19;20094;-69
2022/11/01 05:35:17;;;;;;;10.88;1.90;;;;;;;12.29;100.00;101011.19;7380483;19;20857;-69
2022/11/01 05:37:51;;;;;;;11.10;2.13;;;;;;;12.27;100.00;101028.72;7380655;19;20099;-69
2022/11/01 05:40:21;;;;;;;7.95;2.53;;;;;;;12.36;100.00;101026.16;7381232;19;20015;-69
2022/11/01 05:42:53;;;;;;;12.25;2.50;;;;;;;12.27;100.00;101029.59;7378146;19;20007;-69
2022/11/01 05:45:23;;;;;;;13.90;2.60;;;;;;;12.34;100.00;101044.56;7382994;19;20010;-70
2022/11/01 05:47:52;;;;;;;12.38;3.03;;;;;;;12.37;100.00;101043.72;7382996;19;20022;-69
2022/11/01 05:50:24;;;;;;;11.73;2.15;;;;;;;12.38;100.00;101037.59;7384733;19;20026;-70
2022/11/01 05:53:05;;;;;;;10.23;3.23;;;;;;;12.46;100.00;101051.69;7383942;19;20019;-70
2022/11/01 05:55:36;;;;;;;9.73;2.05;;;;;;;12.49;100.00;101041.16;7384227;19;20014;-70
2022/11/01 05:58:09;;;;;;;8.02;2.30;;;;;;;12.43;100.00;101022.72;7379934;19;20014;-71
2022/11/01 06:00:46;;;;;;;9.25;2.05;;;;;;;12.46;100.00;101040.28;7381167;19;20022;-70
2022/11/01 06:03:18;;;;;;;14.05;3.00;;;;;;;12.50;100.00;101052.56;7382937;19;20011;-70
2022/11/01 06:05:53;;;;;;;7.32;2.58;;;;;;;12.47;100.00;101035.03;7385386;19;20022;-70
2022/11/01 06:08:30;;;;;;;10.13;2.30;;;;;;;12.44;100.00;101053.41;7379910;19;20021;-70
2022/11/01 06:11:04;;;;;;;14.63;2.90;;;;;;;12.49;100.00;101041.16;7380377;19;20014;-70
2022/11/01 06:13:36;;;;;;;;;;;;;;;12.48;100.00;101057.81;7379589;19;20035;-70
2022/11/01 06:16:10;;;;;;;13.05;2.90;;;;;;;12.45;100.00;101070.97;7378560;19;19919;-71
2022/11/01 06:18:48;;;;;;;12.82;2.63;;;;;;;12.47;100.00;101058.72;7379149;19;20006;-70
2022/11/01 06:21:29;;;;;;;10.40;2.58;;;;;;;12.44;100.00;101058.69;7378333;19;20010;-70
2022/11/01 06:24:18;;;;;;;13.63;2.80;;;;;;;12.47;100.00;101052.56;7376041;19;20022;-70
2022/11/01 06:26:48;;;;;;;14.32;2.72;;;;;;;12.51;100.00;101057.84;7379371;19;20010;-72
2022/11/01 06:29:28;;;;;;;12.85;2.60;;;;;;;12.50;100.00;101068.34;7380165;19;20006;-72
2022/11/01 06:32:17;;;;;;;15.10;3.25;;;;;;;12.46;100.00;101078.00;7377993;19;20250;-71
2022/11/01 06:34:50;;;;;;;18.08;3.28;;;;;;;12.47;100.00;101086.78;7376355;19;20119;-71
2022/11/01 06:37:29;;;;;;;12.80;2.95;;;;;;;12.47;100.00;101090.28;7379310;19;20007;-71
2022/11/01 06:40:06;;;;;;;10.70;2.50;;;;;;;12.41;100.00;101075.31;7379692;19;20015;-71
2022/11/01 06:42:39;;;;;;;14.73;4.18;;;;;;;12.38;100.00;101079.66;7381895;19;20022;-72
2022/11/01 06:45:19;;;;;;;15.85;2.83;;;;;;;12.37;100.00;101105.09;7377409;19;20079;-72
2022/11/01 06:47:53;;;;;;;10.48;2.50;;;;;;;12.35;100.00;101108.56;7378372;19;20006;-71
2022/11/01 06:50:26;;;;;;;11.70;2.50;;;;;;;12.33;100.00;101112.94;7377954;19;20010;-71
2022/11/01 06:53:18;;;;;;;10.50;2.40;;;;;;;12.29;100.00;101095.34;7379369;19;20014;-71
2022/11/01 06:56:05;;;;;;;14.20;3.05;;;;;;;12.26;100.00;101117.25;7374708;19;20016;-71
2022/11/01 06:58:44;;;;;;;14.07;2.80;;;;;;;12.27;100.00;101113.75;7379363;19;20056;-71
2022/11/01 07:01:17;;;;;;;11.43;3.38;;;;;;;12.32;100.00;101116.44;7378581;19;20010;-75
2022/11/01 07:03:47;;;;;;;13.27;2.83;;;;;;;12.35;100.00;101126.97;7377154;19;20021;-75
2022/11/01 07:06:17;;;;;;;12.60;2.50;;;;;;;12.39;100.00;101150.69;7378007;19;20021;-75
2022/11/01 07:08:46;;;;;;;14.23;2.67;;;;;;;12.40;100.00;101146.31;7377604;19;20022;-75
2022/11/01 07:11:19;;;;;;;16.80;3.25;;;;;;;12.35;100.00;101158.53;7378170;19;20036;-75
2022/11/01 07:13:49;;;;;;;15.10;3.47;;;;;;;12.28;100.00;101161.97;7378854;19;20083;-71
2022/11/01 07:16:20;;;;;;;12.73;3.58;;;;;;;12.24;100.00;101152.28;7379636;19;20018;-75
2022/11/01 07:18:49;;;;;;;9.50;2.58;;;;;;;12.24;100.00;101171.56;7381282;19;20466;-75
2022/11/01 07:21:19;;;;;;;11.23;2.22;;;;;;;12.15;100.00;101179.34;7382644;19;20014;-75
2022/11/01 07:23:49;;;;;;;9.57;2.95;;;;;;;12.12;100.00;101210.84;7379696;19;20017;-75
2022/11/01 07:26:21;;;;;;;10.85;2.60;;;;;;;12.18;100.00;101202.16;7377597;19;20017;-75
2022/11/01 07:28:51;;;;;;;8.73;2.50;;;;;;;12.14;100.00;101205.63;7373744;19;20010;-74
2022/11/01 07:31:21;;;;;;;15.98;3.00;;;;;;;12.08;100.00;101220.44;7371804;19;20298;-75
2022/11/01 07:33:51;;;;;;;10.60;3.15;;;;;;;12.10;100.00;101223.09;7373443;19;20529;-75
2022/11/01 07:36:20;;;;;;;13.38;2.97;;;;;;;12.10;100.00;101217.84;7371732;19;20025;-75
2022/11/01 07:38:50;;;;;;;9.40;2.97;;;;;;;12.15;100.00;101236.31;7373858;19;20021;-75
2022/11/01 07:41:22;;;;;;;9.63;2.85;;;;;;;12.15;100.00;101234.56;7371917;19;20023;-76
2022/11/01 07:44:03;;;;;;;8.95;2.70;;;;;;;12.13;100.00;101244.19;7374196;19;20426;-70
2022/11/01 07:46:33;;;;;;;12.43;2.85;;;;;;;12.07;100.00;101229.19;7377755;19;20025;-71
2022/11/01 07:49:03;;;;;;;8.77;2.75;;;;;;;12.06;100.00;101239.69;7378136;19;20038;-70
2022/11/01 07:51:33;;;;;;;13.40;3.25;;;;;;;12.10;100.00;101244.13;7375591;19;20491;-70
2022/11/01 07:54:03;;;;;;;12.85;3.20;;;;;;;12.13;100.00;101256.44;7371553;19;20011;-71
2022/11/01 07:56:36;;;;;;;8.48;2.85;;;;;;;12.10;100.00;101246.75;7375859;19;20527;-75
2022/11/01 07:59:06;;;;;;;9.88;2.45;;;;;;;12.09;100.00;101253.78;7378216;19;20021;-75
2022/11/01 08:01:35;;;;;;;15.15;3.67;;;;;;;12.06;100.00;101268.63;7375387;19;20090;-75
2022/11/01 08:04:06;;;;;;;13.30;3.20;;;;;;;12.10;100.00;101258.16;7376390;19;20229;-75
2022/11/01 08:06:35;;;;;;;15.05;2.95;;;;;;;12.08;100.00;101267.78;7377646;19;20010;-75
2022/11/01 08:09:05;;;;;;;10.95;2.38;;;;;;;12.08;100.00;101269.53;7377835;19;20018;-75
2022/11/01 08:11:37;;;;;;;9.05;2.67;;;;;;;12.04;100.00;101272.97;7375942;19;20312;-75
2022/11/01 08:14:07;;;;;;;16.02;3.63;;;;;;;12.07;100.00;101283.53;7380251;19;20015;-75
2022/11/01 08:16:40;;;;;;;12.90;2.85;;;;;;;12.10;100.00;101279.19;7380329;19;20035;-75
2022/11/01 08:19:11;;;;;;;10.32;3.25;;;;;;;12.07;100.00;101294.94;7376735;19;20026;-75
2022/11/01 08:21:41;;;;;;;11.57;2.63;;;;;;;12.08;100.00;101294.06;7374920;19;20125;-76
2022/11/01 08:24:11;;;;;;;11.80;2.78;;;;;;;12.09;100.00;101308.97;7372702;19;20163;-75
2022/11/01 08:26:43;;;;;;;8.63;2.63;;;;;;;12.10;100.00;101307.22;7377713;19;20018;-75
2022/11/01 08:29:13;;;;;;;13.93;3.53;;;;;;;12.08;100.00;101304.59;7378276;19;20090;-75
2022/11/01 08:31:44;;;;;;;9.18;2.50;;;;;;;12.14;100.00;101302.91;7378871;19;20029;-75
2022/11/01 08:34:13;;;;;;;10.57;2.53;;;;;;;12.16;100.00;101336.25;7373999;19;20011;-76
2022/11/01 08:36:45;;;;;;;7.25;2.47;;;;;;;12.20;100.00;101318.78;7375015;19;20136;-75
2022/11/01 08:39:15;;;;;;;12.27;2.33;;;;;;;12.21;100.00;101321.41;7374026;19;20014;-75
2022/11/01 08:41:49;;;;;;;12.70;2.80;;;;;;;12.25;100.00;101330.22;7374989;19;20515;-76
2022/11/01 08:44:20;;;;;;;12.85;2.90;;;;;;;12.31;100.00;101331.22;7374684;19;20021;-75
2022/11/01 08:46:50;;;;;;;10.60;2.40;;;;;;;12.32;100.00;101321.56;7376722;19;20007;-76
2022/11/01 08:49:19;;;;;;;11.05;2.35;;;;;;;12.37;100.00;101340.94;7379639;19;20022;-76
2022/11/01 08:51:49;;;;;;;9.38;2.22;;;;;;;12.44;100.00;101348.03;7375915;19;20022;-75
2022/11/01 08:54:18;;;;;;;11.43;2.83;;;;;;;12.50;100.00;101341.94;7375606;19;20014;-75
2022/11/01 08:56:51;;;;;;;11.73;2.80;;;;;;;12.53;100.00;101352.50;7372149;19;20154;-76
2022/11/01 08:59:21;;;;;;;13.27;3.03;;;;;;;12.51;100.00;101331.44;7376480;19;20022;-77
2022/11/01 09:01:51;;;;;;;14.95;2.50;;;;;;;12.56;100.00;101348.19;7377029;19;20009;-76
2022/11/01 09:04:21;;;;;;;10.32;2.45;;;;;;;12.72;100.00;101357.16;7374082;19;20015;-76
2022/11/01 09:06:51;;;;;;;8.80;2.33;;;;;;;12.84;100.00;101359.94;7374455;19;20586;-77
2022/11/01 09:09:21;;;;;;;16.13;2.85;;;;;;;12.72;100.00;101376.47;7374524;19;20017;-77
2022/11/01 09:11:53;;;;;;;12.55;2.65;;;;;;;12.71;100.00;101374.69;7374278;19;20006;-77
2022/11/01 09:14:25;;;;;;;13.23;3.05;;;;;;;12.83;100.00;101379.22;7373546;19;20015;-76
2022/11/01 09:16:54;;;;;;;15.30;2.75;;;;;;;12.93;100.00;101391.66;7377095;19;20003;-77
2022/11/01 09:19:24;;;;;;;9.90;3.03;;;;;;;13.03;100.00;101387.38;7378664;19;20017;-76
2022/11/01 09:21:53;;;;;;;9.10;2.90;;;;;;;13.08;100.00;101377.78;7377125;19;20011;-77
2022/11/01 09:24:23;;;;;;;29.73;3.88;;;;;;;13.10;100.00;101392.72;7374020;19;20131;-76
2022/11/01 09:26:56;;;;;;;9.70;2.42;;;;;;;13.20;100.00;101406.94;7373666;19;20007;-76
2022/11/01 09:29:25;;;;;;;11.77;3.20;;;;;;;13.21;100.00;101432.41;7373637;19;20074;-76
2022/11/01 09:31:56;;;;;;;8.20;2.60;;;;;;;13.13;100.00;101410.31;7371036;19;20025;-77
2022/11/01 09:34:25;;;;;;;17.77;2.65;;;;;;;13.20;100.00;101437.66;7375303;19;20014;-76
2022/11/01 09:36:55;;;;;;;10.38;2.75;;;;;;;13.25;100.00;101415.78;7372793;19;20021;-77
2022/11/01 09:39:26;;;;;;;14.25;2.72;;;;;;;13.39;100.00;101410.66;7374397;19;20010;-77
2022/11/01 09:42:02;;;;;;;10.45;2.30;;;;;;;13.40;100.00;101422.97;7375690;19;20074;-77
2022/11/01 09:44:35;;;;;;;16.55;3.05;;;;;;;13.49;100.00;101416.91;7375929;19;20021;-77
2022/11/01 09:47:09;;;;;;;12.23;3.05;;;;;;;13.63;100.00;101434.59;7377778;19;20006;-77
2022/11/01 09:49:42;;;;;;;9.43;2.30;;;;;;;13.65;100.00;101418.78;7371936;19;20031;-76
2022/11/01 09:52:20;;;;;;;10.82;2.63;;;;;;;13.74;100.00;101424.16;7379109;19;20015;-76
2022/11/01 09:54:50;;;;;;;13.52;2.75;;;;;;;13.72;100.00;101428.53;7370260;19;20006;-76
2022/11/01 09:57:33;;;;;;;13.93;2.88;;;;;;;13.93;100.00;101412.91;7371470;19;20027;-76
2022/11/01 10:00:08;;;;;;;7.28;2.30;;;;;;;13.93;100.00;101423.47;7374323;19;20011;-77
2022/11/01 10:02:59;;;;;;;10.85;2.38;;;;;;;13.96;100.00;101423.50;7370465;19;20061;-77
2022/11/01 10:05:41;;;;;;;13.23;2.70;;;;;;;13.95;100.00;101427.00;7372296;19;20019;-77
2022/11/01 10:08:21;;;;;;;13.57;2.65;;;;;;;14.05;100.00;101438.50;7382731;19;20046;-76
2022/11/01 10:11:00;;;;;;;8.93;3.30;;;;;;;14.14;100.00;101448.25;7383553;19;20016;-76
2022/11/01 10:13:42;;;;;;;11.90;2.33;;;;;;;14.28;100.00;101446.59;7381681;19;20010;-76
2022/11/01 10:16:21;;;;;;;11.27;3.00;;;;;;;14.26;100.00;101456.28;7378589;19;20029;-76
2022/11/01 10:18:57;;;;;;;14.00;2.25;;;;;;;14.34;100.00;101451.94;7378333;19;20459;-76
2022/11/01 10:21:43;;;;;;;10.00;2.30;;;;;;;14.34;100.00;101459.84;7377795;19;20026;-71
2022/11/01 10:24:23;;;;;;;11.05;2.53;;;;;;;14.40;100.00;101459.91;7374718;19;20022;-71
2022/11/01 10:27:00;;;;;;;12.50;2.50;;;;;;;14.35;100.00;101474.81;7380003;19;20021;-71
2022/11/01 10:29:38;;;;;;;14.77;2.40;;;;;;;14.53;100.00;101485.53;7377694;19;20014;-71
2022/11/01 10:32:21;;;;;;;7.47;2.47;;;;;;;14.55;100.00;101478.53;7379450;19;20015;-71
2022/11/01 10:34:52;;;;;;;13.10;2.40;;;;;;;14.62;100.00;101475.00;7374115;19;20094;-71
2022/11/01 10:37:29;;;;;;;13.50;2.63;;;;;;;14.67;100.00;101489.13;7377538;19;20009;-71
2022/11/01 10:40:04;;;;;;;12.15;3.05;;;;;;;14.77;100.00;101484.78;7378373;19;20579;-71
2022/11/01 10:42:43;;;;;;;13.45;2.60;;;;;;;14.64;100.00;101496.16;7378688;19;20018;-70
2022/11/01 10:45:19;;;;;;;14.43;2.47;;;;;;;14.57;100.00;101497.84;7374975;19;20751;-71
2022/11/01 10:47:54;;;;;;;11.18;2.92;;;;;;;14.73;100.00;101498.84;7379678;19;20026;-70
2022/11/01 10:50:27;;;;;;;11.35;2.90;;;;;;;14.80;100.00;101500.66;7380245;19;20029;-71
2022/11/01 10:53:04;;;;;;;9.68;2.70;;;;;;;14.78;100.00;101486.56;7377329;19;20010;-71
2022/11/01 10:55:41;;;;;;;15.10;3.15;;;;;;;14.89;100.00;101489.28;7382092;19;20018;-71
2022/11/01 10:58:17;;;;;;;11.82;2.58;;;;;;;15.00;100.00;101472.59;7377149;19;20033;-72
2022/11/01 11:00:50;;;;;;;5.25;2.58;;;;;;;15.09;100.00;101474.41;7380847;19;20017;-71
2022/11/01 11:03:24;;;;;;;10.63;2.53;;;;;;;15.05;100.00;101480.56;7378090;19;20080;-72
2022/11/01 11:05:58;;;;;;;17.55;2.85;;;;;;;15.18;100.00;101481.50;7374632;19;20018;-72
2022/11/01 11:08:27;;;;;;;;;;;;;;;15.09;100.00;101487.63;7379286;19;20014;-70
2022/11/01 11:11:05;;;;;;;10.80;2.90;;;;;;;15.09;100.00;101470.88;7378043;19;19933;-71
2022/11/01 11:13:36;;;;;;;8.82;2.58;;;;;;;14.86;100.00;101481.31;7378243;19;20017;-71
2022/11/01 11:16:16;;;;;;;10.45;2.75;;;;;;;14.89;100.00;101482.22;7378746;19;20019;-71
2022/11/01 11:19:02;;;;;;;10.60;2.78;;;;;;;15.05;100.00;101476.16;7379121;19;20026;-71
2022/11/01 11:21:36;;;;;;;11.63;3.20;;;;;;;15.17;100.00;101474.44;7378771;19;20015;-72
2022/11/01 11:24:06;;;;;;;12.90;2.67;;;;;;;15.23;100.00;101463.91;7378561;19;20020;-70
2022/11/01 11:26:40;;;;;;;9.35;2.30;;;;;;;15.14;100.00;101471.78;7376538;19;20019;-70
2022/11/01 11:29:18;;;;;;;10.32;2.00;;;;;;;15.24;100.00;101466.56;7379181;19;20022;-71
2022/11/01 11:31:58;;;;;;;9.30;2.45;;;;;;;15.17;100.00;101467.41;7378198;19;20056;-71
2022/11/01 11:34:31;;;;;;;13.00;2.35;;;;;;;15.22;100.00;101473.59;7378690;19;20007;-71
2022/11/01 11:37:03;;;;;;;13.85;2.08;;;;;;;15.50;100.00;101473.69;7378396;19;20023;-70
2022/11/01 11:39:35;;;;;;;10.82;2.10;;;;;;;15.41;100.00;101466.63;7374980;19;20510;-70
2022/11/01 11:42:13;;;;;;;9.77;2.10;;;;;;;15.49;100.00;101466.66;7377796;19;20019;-71
2022/11/01 11:44:46;;;;;;;9.48;2.13;;;;;;;15.62;100.00;101464.03;7377832;19;20010;-70
2022/11/01 11:47:27;;;;;;;11.65;2.83;;;;;;;15.50;100.00;101473.69;7378184;19;20010;-71
2022/11/01 11:50:00;;;;;;;9.77;2.08;;;;;;;15.50;100.00;101473.69;7378125;19;20010;-71